Nissyomaru — JD2650 — position and weather

sailwx.info

Track history (hours):
 
Tides and Currents Weather Stations Pressure Air Temp Water Temp Dewpoint Dewpoint Depression Visibility Wind Speed Wind Dir Waves Ship Positions

Nissyomaru

Last reported at 2015-Mar-02 10:34 UTC. Time now 2015-Mar-03 04:45 UTC.
Position N 34°00' E 134°60'.

Length 75 m; draft 4 m.

Type: Cargo ship. MMSI: 431000572.

Date/timePositionNaut miles runAvg speedWind from/ knotsBaromVisibWave heightAir tempDewpointWater temp
2015-Mar-02 10:34N 34°00' E 134°60'1313.0
2015-Mar-02 09:33N 34°13' E 134°59'1211.8
2015-Mar-02 08:33N 34°24' E 135°04'1312.6
2015-Mar-02 07:33N 34°33' E 135°15'8 6.8
2015-Mar-02 06:23N 34°41' E 135°17'0 0.0
2015-Mar-02 05:29N 34°41' E 135°17'0 0.0
2015-Mar-02 04:23N 34°41' E 135°17'0 0.0
2015-Mar-02 03:29N 34°41' E 135°17'0 0.0
2015-Mar-02 02:29N 34°41' E 135°17'0 0.0
2015-Mar-02 01:29N 34°41' E 135°17'0 0.0
2015-Mar-02 00:29N 34°41' E 135°17'0 0.0
2015-Mar-01 23:29N 34°41' E 135°17'0 0.0
2015-Mar-01 22:23N 34°41' E 135°17'0 0.0
2015-Mar-01 21:11N 34°41' E 135°17'0 0.0
2015-Mar-01 20:29N 34°41' E 135°17'0 0.0
2015-Mar-01 19:29N 34°41' E 135°17'0 0.0
2015-Mar-01 18:23N 34°41' E 135°17'0 0.0
2015-Mar-01 17:29N 34°41' E 135°17'0 0.0
2015-Mar-01 16:29N 34°41' E 135°17'0 0.0
2015-Mar-01 15:29N 34°41' E 135°17'0 0.0
2015-Mar-01 14:29N 34°41' E 135°17'0 0.0
2015-Mar-01 13:29N 34°41' E 135°17'0 0.0
2015-Mar-01 12:29N 34°41' E 135°17'0 0.0
2015-Mar-01 11:17N 34°41' E 135°17'0 0.0
2015-Mar-01 10:29N 34°41' E 135°17'0 0.0
2015-Mar-01 09:29N 34°41' E 135°17'0 0.0
2015-Mar-01 08:29N 34°41' E 135°17'0 0.0
2015-Mar-01 07:23N 34°41' E 135°17'0 0.0
2015-Mar-01 06:29N 34°41' E 135°17'0 0.0
2015-Mar-01 05:29N 34°41' E 135°17'0 0.0
2015-Mar-01 04:29N 34°41' E 135°17'0 0.0
2015-Mar-01 03:29N 34°41' E 135°17'0 0.0
2015-Mar-01 02:29N 34°41' E 135°17'0 0.0
2015-Mar-01 01:29N 34°41' E 135°17'0 0.0
2015-Mar-01 00:29N 34°41' E 135°17'0 0.0
2015-Feb-28 23:29N 34°41' E 135°17'2 2.0
2015-Feb-28 22:33N 34°41' E 135°19'0 0.1
2015-Feb-28 21:33N 34°41' E 135°19'0 0.0
2015-Feb-28 20:33N 34°41' E 135°19'0 0.0
2015-Feb-28 19:33N 34°41' E 135°19'0 0.0
2015-Feb-28 18:27N 34°41' E 135°19'0 0.0
2015-Feb-28 17:33N 34°41' E 135°19'0 0.1
2015-Feb-28 16:33N 34°41' E 135°19'0 0.0
2015-Feb-28 15:33N 34°41' E 135°19'0 0.0
2015-Feb-28 14:33N 34°41' E 135°19'0 0.0
2015-Feb-28 13:33N 34°41' E 135°19'0 0.0
2015-Feb-28 12:33N 34°41' E 135°19'0 0.0
2015-Feb-28 11:33N 34°41' E 135°19'0 0.1
2015-Feb-28 10:27N 34°41' E 135°19'1 1.4
2015-Feb-28 09:33N 34°42' E 135°18'0 0.1
2015-Feb-28 08:31N 34°42' E 135°18'0 0.0
2015-Feb-28 07:31N 34°42' E 135°18'0 0.0
2015-Feb-28 06:31N 34°42' E 135°18'0 0.5
2015-Feb-28 05:33N 34°42' E 135°18'1 0.9
2015-Feb-28 04:23N 34°43' E 135°18'0 0.0
2015-Feb-28 03:29N 34°43' E 135°18'0 0.0
2015-Feb-28 02:29N 34°43' E 135°18'0 0.0
2015-Feb-28 01:29N 34°43' E 135°18'0 0.0
2015-Feb-28 00:29N 34°43' E 135°18'0 0.0
2015-Feb-27 23:29N 34°43' E 135°18'0 0.0
2015-Feb-27 22:29N 34°43' E 135°18'3 3.4
2015-Feb-27 21:33N 34°40' E 135°19'0 0.1
2015-Feb-27 20:32N 34°40' E 135°19'0 0.0
2015-Feb-27 19:26N 34°40' E 135°19'0 0.1
2015-Feb-27 18:32N 34°40' E 135°19'0 0.0
2015-Feb-27 17:32N 34°40' E 135°19'0 0.1
2015-Feb-27 16:32N 34°40' E 135°19'0 0.0
2015-Feb-27 15:32N 34°40' E 135°19'0 0.1
2015-Feb-27 14:32N 34°40' E 135°19'0 0.0
2015-Feb-27 13:32N 34°40' E 135°19'0 0.0
2015-Feb-27 12:32N 34°40' E 135°19'0 0.0
2015-Feb-27 11:32N 34°40' E 135°19'0 0.0
2015-Feb-27 10:32N 34°40' E 135°19'0 0.0
2015-Feb-27 09:32N 34°40' E 135°19'0 0.0
2015-Feb-27 08:32N 34°40' E 135°19'0 0.1
2015-Feb-27 07:33N 34°40' E 135°19'5 4.5
2015-Feb-27 06:33N 34°36' E 135°17'1211.5
2015-Feb-27 05:33N 34°26' E 135°09'1411.1
2015-Feb-27 04:17N 34°15' E 134°59'811.0
2015-Feb-27 03:32N 34°06' E 135°00'  
Track history (hours):
 
Tides and Currents Weather Stations Pressure Air Temp Water Temp Dewpoint Dewpoint Depression Visibility Wind Speed Wind Dir Waves Ship Positions

Nissyomaru

Last reported at 2015-Mar-02 10:34 UTC. Time now 2015-Mar-03 04:45 UTC.
Position N 34°00' E 134°60'.

Length 75 m; draft 4 m.

Type: Cargo ship. MMSI: 431000572.

Date/timePositionNaut miles runAvg speedWind from/ knotsBaromVisibWave heightAir tempDewpointWater temp
2015-Mar-02 10:34N 34°00' E 134°60'1313.0
2015-Mar-02 09:33N 34°13' E 134°59'1211.8
2015-Mar-02 08:33N 34°24' E 135°04'1312.6
2015-Mar-02 07:33N 34°33' E 135°15'8 6.8
2015-Mar-02 06:23N 34°41' E 135°17'0 0.0
2015-Mar-02 05:29N 34°41' E 135°17'0 0.0
2015-Mar-02 04:23N 34°41' E 135°17'0 0.0
2015-Mar-02 03:29N 34°41' E 135°17'0 0.0
2015-Mar-02 02:29N 34°41' E 135°17'0 0.0
2015-Mar-02 01:29N 34°41' E 135°17'0 0.0
2015-Mar-02 00:29N 34°41' E 135°17'0 0.0
2015-Mar-01 23:29N 34°41' E 135°17'0 0.0
2015-Mar-01 22:23N 34°41' E 135°17'0 0.0
2015-Mar-01 21:11N 34°41' E 135°17'0 0.0
2015-Mar-01 20:29N 34°41' E 135°17'0 0.0
2015-Mar-01 19:29N 34°41' E 135°17'0 0.0
2015-Mar-01 18:23N 34°41' E 135°17'0 0.0
2015-Mar-01 17:29N 34°41' E 135°17'0 0.0
2015-Mar-01 16:29N 34°41' E 135°17'0 0.0
2015-Mar-01 15:29N 34°41' E 135°17'0 0.0
2015-Mar-01 14:29N 34°41' E 135°17'0 0.0
2015-Mar-01 13:29N 34°41' E 135°17'0 0.0
2015-Mar-01 12:29N 34°41' E 135°17'0 0.0
2015-Mar-01 11:17N 34°41' E 135°17'0 0.0
2015-Mar-01 10:29N 34°41' E 135°17'0 0.0
2015-Mar-01 09:29N 34°41' E 135°17'0 0.0
2015-Mar-01 08:29N 34°41' E 135°17'0 0.0
2015-Mar-01 07:23N 34°41' E 135°17'0 0.0
2015-Mar-01 06:29N 34°41' E 135°17'0 0.0
2015-Mar-01 05:29N 34°41' E 135°17'0 0.0
2015-Mar-01 04:29N 34°41' E 135°17'0 0.0
2015-Mar-01 03:29N 34°41' E 135°17'0 0.0
2015-Mar-01 02:29N 34°41' E 135°17'0 0.0
2015-Mar-01 01:29N 34°41' E 135°17'0 0.0
2015-Mar-01 00:29N 34°41' E 135°17'0 0.0
2015-Feb-28 23:29N 34°41' E 135°17'2 2.0
2015-Feb-28 22:33N 34°41' E 135°19'0 0.1
2015-Feb-28 21:33N 34°41' E 135°19'0 0.0
2015-Feb-28 20:33N 34°41' E 135°19'0 0.0
2015-Feb-28 19:33N 34°41' E 135°19'0 0.0
2015-Feb-28 18:27N 34°41' E 135°19'0 0.0
2015-Feb-28 17:33N 34°41' E 135°19'0 0.1
2015-Feb-28 16:33N 34°41' E 135°19'0 0.0
2015-Feb-28 15:33N 34°41' E 135°19'0 0.0
2015-Feb-28 14:33N 34°41' E 135°19'0 0.0
2015-Feb-28 13:33N 34°41' E 135°19'0 0.0
2015-Feb-28 12:33N 34°41' E 135°19'0 0.0
2015-Feb-28 11:33N 34°41' E 135°19'0 0.1
2015-Feb-28 10:27N 34°41' E 135°19'1 1.4
2015-Feb-28 09:33N 34°42' E 135°18'0 0.1
2015-Feb-28 08:31N 34°42' E 135°18'0 0.0
2015-Feb-28 07:31N 34°42' E 135°18'0 0.0
2015-Feb-28 06:31N 34°42' E 135°18'0 0.5
2015-Feb-28 05:33N 34°42' E 135°18'1 0.9
2015-Feb-28 04:23N 34°43' E 135°18'0 0.0
2015-Feb-28 03:29N 34°43' E 135°18'0 0.0
2015-Feb-28 02:29N 34°43' E 135°18'0 0.0
2015-Feb-28 01:29N 34°43' E 135°18'0 0.0
2015-Feb-28 00:29N 34°43' E 135°18'0 0.0
2015-Feb-27 23:29N 34°43' E 135°18'0 0.0
2015-Feb-27 22:29N 34°43' E 135°18'3 3.4
2015-Feb-27 21:33N 34°40' E 135°19'0 0.1
2015-Feb-27 20:32N 34°40' E 135°19'0 0.0
2015-Feb-27 19:26N 34°40' E 135°19'0 0.1
2015-Feb-27 18:32N 34°40' E 135°19'0 0.0
2015-Feb-27 17:32N 34°40' E 135°19'0 0.1
2015-Feb-27 16:32N 34°40' E 135°19'0 0.0
2015-Feb-27 15:32N 34°40' E 135°19'0 0.1
2015-Feb-27 14:32N 34°40' E 135°19'0 0.0
2015-Feb-27 13:32N 34°40' E 135°19'0 0.0
2015-Feb-27 12:32N 34°40' E 135°19'0 0.0
2015-Feb-27 11:32N 34°40' E 135°19'0 0.0
2015-Feb-27 10:32N 34°40' E 135°19'0 0.0
2015-Feb-27 09:32N 34°40' E 135°19'0 0.0
2015-Feb-27 08:32N 34°40' E 135°19'0 0.1
2015-Feb-27 07:33N 34°40' E 135°19'5 4.5
2015-Feb-27 06:33N 34°36' E 135°17'1211.5
2015-Feb-27 05:33N 34°26' E 135°09'1411.1
2015-Feb-27 04:17N 34°15' E 134°59'811.0
2015-Feb-27 03:32N 34°06' E 135°00'  

Dump ship's entire track history